createdAt,value
2018-07-12T00:01:48.523Z,16.47
2018-07-12T00:06:50.826Z,15.87
2018-07-12T00:11:54.998Z,15.20
2018-07-12T00:16:57.505Z,14.50
2018-07-12T00:22:00.017Z,17.67
2018-07-12T00:27:02.342Z,17.97
2018-07-12T00:32:04.671Z,19.30
2018-07-12T00:37:07.045Z,18.63
2018-07-12T00:42:09.351Z,21.73
2018-07-12T00:47:11.877Z,19.90
2018-07-12T00:52:14.180Z,18.67
2018-07-12T00:57:17.338Z,19.10
2018-07-12T01:02:19.672Z,21.50
2018-07-12T01:07:22.001Z,22.27
2018-07-12T01:12:24.327Z,26.03
2018-07-12T01:17:26.666Z,27.17
2018-07-12T01:22:29.153Z,27.17
2018-07-12T01:27:31.565Z,28.90
2018-07-12T01:32:33.857Z,28.93
2018-07-12T01:37:36.205Z,31.77
2018-07-12T01:42:38.525Z,30.93
2018-07-12T01:47:40.855Z,28.30
2018-07-12T01:52:43.176Z,33.10
2018-07-12T01:57:45.525Z,30.07
2018-07-12T02:02:47.913Z,33.97
2018-07-12T02:07:50.423Z,31.17
2018-07-12T02:12:52.792Z,26.80
2018-07-12T02:17:56.569Z,30.77
2018-07-12T02:22:58.871Z,29.27
2018-07-12T02:28:01.217Z,29.53
2018-07-12T02:33:03.677Z,28.93
2018-07-12T02:38:05.978Z,29.23
2018-07-12T02:43:09.026Z,30.00
2018-07-12T02:48:11.400Z,30.30
2018-07-12T02:53:13.996Z,34.40
2018-07-12T02:58:16.319Z,32.50
2018-07-12T03:03:18.669Z,36.23
2018-07-12T03:08:21.053Z,35.43
2018-07-12T03:13:23.395Z,37.20
2018-07-12T03:18:25.727Z,36.37
2018-07-12T03:23:28.286Z,36.83
2018-07-12T03:28:30.591Z,34.57
2018-07-12T03:33:32.929Z,34.30
2018-07-12T03:38:35.237Z,34.97
2018-07-12T03:43:38.494Z,33.67
2018-07-12T03:48:40.799Z,34.47
2018-07-12T03:53:43.128Z,34.30
2018-07-12T03:58:45.421Z,35.93
2018-07-12T04:03:47.850Z,34.30
2018-07-12T04:08:50.168Z,32.80
2018-07-12T04:13:52.516Z,35.97
2018-07-12T04:18:54.818Z,39.43
2018-07-12T04:23:57.177Z,42.20
2018-07-12T04:28:59.502Z,39.87
2018-07-12T04:34:02.025Z,42.77
2018-07-12T04:39:04.759Z,41.97
2018-07-12T04:44:07.282Z,42.63
2018-07-12T04:49:09.581Z,39.63
2018-07-12T04:54:12.487Z,44.50
2018-07-12T04:59:15.095Z,37.17
2018-07-12T05:04:17.595Z,35.58
2018-07-12T05:09:19.955Z,34.20
2018-07-12T05:14:22.332Z,33.90
2018-07-12T05:19:24.664Z,34.53
2018-07-12T05:24:27.190Z,35.50
2018-07-12T05:29:29.509Z,38.23
2018-07-12T05:34:31.874Z,34.83
2018-07-12T05:39:35.513Z,41.67
2018-07-12T05:44:39.057Z,37.33
2018-07-12T05:49:42.595Z,32.77
2018-07-12T05:54:46.257Z,37.73
2018-07-12T05:59:49.803Z,38.40
2018-07-12T06:04:53.509Z,40.00
2018-07-12T06:09:57.847Z,38.17
2018-07-12T06:15:01.414Z,39.77
2018-07-12T06:20:08.036Z,40.37
2018-07-12T06:25:11.818Z,39.40
2018-07-12T06:30:18.334Z,39.77
2018-07-12T06:35:21.965Z,32.43
2018-07-12T06:40:25.745Z,37.37
2018-07-12T06:45:29.417Z,37.23
2018-07-12T06:50:33.119Z,32.73
2018-07-12T06:55:37.684Z,31.80
2018-07-12T07:00:41.222Z,32.87
2018-07-12T07:05:44.877Z,29.77
2018-07-12T07:10:48.389Z,30.33
2018-07-12T07:15:52.874Z,28.67
2018-07-12T07:20:56.409Z,27.77
2018-07-12T07:26:00.561Z,28.57
2018-07-12T07:31:04.586Z,25.90
2018-07-12T07:36:09.184Z,25.87
2018-07-12T07:41:12.751Z,24.47
2018-07-12T07:46:17.273Z,23.70
2018-07-12T07:51:20.776Z,22.83
2018-07-12T07:56:24.347Z,21.10
2018-07-12T08:01:27.866Z,22.47
2018-07-12T08:06:32.302Z,26.30
2018-07-12T08:11:35.810Z,26.10
2018-07-12T08:16:39.344Z,28.33
2018-07-12T08:21:42.877Z,26.07
2018-07-12T08:26:46.485Z,31.40
2018-07-12T08:31:50.265Z,29.20
2018-07-12T08:36:54.031Z,32.00
2018-07-12T08:41:57.599Z,32.93
2018-07-12T08:47:01.244Z,30.00
2018-07-12T08:52:05.661Z,26.37
2018-07-12T08:57:18.479Z,19.00
2018-07-12T09:02:22.761Z,19.33
2018-07-12T09:07:26.354Z,18.90
2018-07-12T09:12:30.213Z,14.90
2018-07-12T09:17:33.759Z,12.97
2018-07-12T09:22:37.268Z,10.07
2018-07-12T09:27:41.051Z,10.20
2018-07-12T09:32:44.628Z,10.73
2018-07-12T09:37:48.306Z,8.90
2018-07-12T09:42:53.172Z,7.10
2018-07-12T09:47:57.157Z,9.23
2018-07-12T09:53:00.719Z,8.90
2018-07-12T09:58:15.650Z,9.90
2018-07-12T10:03:21.562Z,7.93
2018-07-12T10:08:30.430Z,9.30
2018-07-12T10:13:39.256Z,7.47
2018-07-12T10:18:43.181Z,7.93
2018-07-12T10:23:46.796Z,7.10
2018-07-12T10:28:51.954Z,7.40
2018-07-12T10:33:56.896Z,7.57
2018-07-12T10:39:00.992Z,7.13
2018-07-12T10:44:04.710Z,6.67
2018-07-12T10:49:08.405Z,6.80
2018-07-12T10:54:12.057Z,5.87
2018-07-12T10:59:15.549Z,6.03
2018-07-12T11:04:19.307Z,5.63
2018-07-12T11:09:22.917Z,4.43
2018-07-12T11:14:26.481Z,5.07
2018-07-12T11:19:30.154Z,5.03
2018-07-12T11:24:34.276Z,4.50
2018-07-12T11:29:51.369Z,3.93
2018-07-12T11:34:55.012Z,4.20
2018-07-12T11:39:58.748Z,5.00
2018-07-12T11:45:02.418Z,4.80
2018-07-12T11:50:06.290Z,5.60
2018-07-12T11:55:09.892Z,5.33
2018-07-12T12:00:16.280Z,4.77
2018-07-12T12:05:21.055Z,4.87
2018-07-12T12:10:25.072Z,5.27
2018-07-12T12:15:28.721Z,4.57
2018-07-12T12:20:32.466Z,5.40
2018-07-12T12:25:36.269Z,5.43
2018-07-12T12:30:39.956Z,7.53
2018-07-12T12:35:43.637Z,7.03
2018-07-12T12:40:47.219Z,6.97
2018-07-12T12:45:51.748Z,5.40
2018-07-12T12:50:55.331Z,6.07
2018-07-12T12:55:58.917Z,4.83
2018-07-12T13:01:02.918Z,5.07
2018-07-12T13:06:13.366Z,5.93
2018-07-12T13:11:17.810Z,8.00
2018-07-12T13:16:21.369Z,8.30
2018-07-12T13:21:24.937Z,8.23
2018-07-12T13:26:28.670Z,6.43
2018-07-12T13:31:32.515Z,6.23
2018-07-12T13:36:36.045Z,5.50
2018-07-12T13:41:39.634Z,5.90
2018-07-12T13:46:43.519Z,5.50
2018-07-12T13:51:48.381Z,7.17
2018-07-12T13:56:52.448Z,7.73
2018-07-12T14:01:56.007Z,6.80
2018-07-12T14:06:59.708Z,6.33
2018-07-12T14:12:03.521Z,6.20
2018-07-12T14:17:07.038Z,5.07
2018-07-12T14:22:10.659Z,4.00
2018-07-12T14:27:14.428Z,4.00
2018-07-12T14:32:18.274Z,4.50
2018-07-12T14:37:21.940Z,4.60
2018-07-12T14:42:25.509Z,4.10
2018-07-12T14:47:29.062Z,4.23
2018-07-12T14:52:32.727Z,3.80
2018-07-12T14:57:36.642Z,4.90
2018-07-12T15:02:40.161Z,6.33
2018-07-12T15:07:44.009Z,6.87
2018-07-12T15:12:47.523Z,7.07
2018-07-12T15:17:51.288Z,8.87
2018-07-12T15:22:54.807Z,6.93
2018-07-12T15:27:59.062Z,7.10
2018-07-12T15:33:02.715Z,6.60
2018-07-12T15:38:06.529Z,6.00
2018-07-12T15:43:10.039Z,5.67
2018-07-12T15:48:13.621Z,5.90
2018-07-12T15:53:17.186Z,5.73
2018-07-12T15:58:21.589Z,6.97
2018-07-12T16:03:25.095Z,4.70
2018-07-12T16:08:30.457Z,6.53
2018-07-12T16:13:35.103Z,7.77
2018-07-12T16:18:38.629Z,5.83
2018-07-12T16:23:42.199Z,6.03
2018-07-12T16:28:45.767Z,6.90
2018-07-12T16:33:49.541Z,6.67
2018-07-12T16:38:53.282Z,6.23
2018-07-12T16:43:57.821Z,6.20
2018-07-12T16:49:01.438Z,6.07
2018-07-12T16:54:05.173Z,5.50
2018-07-12T16:59:08.930Z,9.37
2018-07-12T17:04:16.211Z,9.70
2018-07-12T17:09:20.218Z,6.40
2018-07-12T17:14:24.514Z,6.17
2018-07-12T17:19:28.998Z,6.37
2018-07-12T17:24:32.661Z,5.80
2018-07-12T17:29:36.578Z,5.40
2018-07-12T17:34:40.405Z,6.30
2018-07-12T17:39:44.343Z,6.40
2018-07-12T17:44:48.608Z,7.23
2018-07-12T17:49:52.636Z,5.47
2018-07-12T17:54:56.194Z,6.43
2018-07-12T18:00:00.600Z,7.93
2018-07-12T18:05:04.358Z,5.83
2018-07-12T18:10:07.904Z,5.83
2018-07-12T18:15:11.498Z,7.57
2018-07-12T18:20:15.684Z,6.57
2018-07-12T18:25:19.317Z,5.77
2018-07-12T18:30:27.854Z,5.00
2018-07-12T18:35:31.416Z,6.70
2018-07-12T18:40:37.050Z,10.57
2018-07-12T18:45:40.662Z,9.37
2018-07-12T18:50:44.329Z,6.33
2018-07-12T18:55:47.898Z,7.33
2018-07-12T19:00:51.473Z,6.90
2018-07-12T19:05:55.099Z,6.73
2018-07-12T19:10:58.875Z,6.60
2018-07-12T19:16:02.660Z,6.60
2018-07-12T19:21:07.763Z,7.13
2018-07-12T19:26:12.157Z,7.87
2018-07-12T19:31:16.206Z,6.90
2018-07-12T19:36:19.753Z,8.27
2018-07-12T19:41:23.390Z,8.53
2018-07-12T19:46:26.911Z,9.33
2018-07-12T19:51:30.995Z,8.90
2018-07-12T19:56:34.734Z,9.13
2018-07-12T20:01:39.597Z,11.33
2018-07-12T20:06:43.820Z,11.30
2018-07-12T20:11:47.363Z,12.73
2018-07-12T20:16:52.501Z,10.60
2018-07-12T20:22:00.078Z,10.43
2018-07-12T20:27:03.719Z,12.93
2018-07-12T20:32:07.476Z,10.57
2018-07-12T20:37:11.061Z,10.53
2018-07-12T20:42:14.626Z,11.47
2018-07-12T20:47:18.064Z,13.80
2018-07-12T20:52:22.469Z,12.80
2018-07-12T20:57:27.320Z,13.30
2018-07-12T21:02:31.641Z,14.03
2018-07-12T21:07:36.066Z,14.33
2018-07-12T21:12:39.612Z,15.10
2018-07-12T21:17:43.709Z,15.80
2018-07-12T21:22:47.375Z,14.53
2018-07-12T21:27:50.868Z,13.43
2018-07-12T21:32:54.518Z,14.47
2018-07-12T21:37:58.090Z,17.67
2018-07-12T21:43:02.017Z,14.90
2018-07-12T21:48:05.594Z,15.97
2018-07-12T21:53:09.717Z,13.27
2018-07-12T21:58:13.354Z,15.83
2018-07-12T22:03:17.092Z,17.27
2018-07-12T22:08:24.778Z,14.07
2018-07-12T22:13:29.214Z,15.40
2018-07-12T22:18:32.736Z,18.63
2018-07-12T22:23:36.592Z,17.23
2018-07-12T22:28:40.177Z,17.37
2018-07-12T22:33:43.711Z,16.47
2018-07-12T22:38:47.331Z,16.93
2018-07-12T22:43:50.917Z,18.20
2018-07-12T22:48:54.554Z,16.43
2018-07-12T22:53:58.226Z,18.87
2018-07-12T22:59:02.077Z,17.60
2018-07-12T23:04:06.724Z,16.80
2018-07-12T23:09:10.320Z,14.40
2018-07-12T23:14:13.866Z,17.73
2018-07-12T23:19:17.318Z,17.37
2018-07-12T23:24:21.405Z,14.63
2018-07-12T23:29:24.906Z,15.13
2018-07-12T23:34:28.411Z,17.07
2018-07-12T23:39:31.911Z,16.30
2018-07-12T23:44:35.642Z,15.47
2018-07-12T23:49:39.185Z,16.07
2018-07-12T23:54:43.212Z,16.00
2018-07-12T23:59:47.214Z,17.47
